createdAt,value
2018-11-02T00:00:46.903Z,0
2018-11-02T00:01:47.146Z,0
2018-11-02T00:02:47.201Z,0
2018-11-02T00:03:47.227Z,0
2018-11-02T00:04:47.199Z,0
2018-11-02T00:06:02.023Z,0
2018-11-02T00:06:46.957Z,0
2018-11-02T00:07:47.759Z,0
2018-11-02T00:09:01.960Z,0
2018-11-02T00:09:46.778Z,0
2018-11-02T00:10:47.347Z,0
2018-11-02T00:11:47.309Z,0
2018-11-02T00:12:47.370Z,0
2018-11-02T00:13:47.149Z,0
2018-11-02T00:14:47.128Z,0
2018-11-02T00:15:47.379Z,0
2018-11-02T00:16:47.439Z,0
2018-11-02T00:17:47.362Z,0
2018-11-02T00:18:47.796Z,0
2018-11-02T00:19:47.453Z,0
2018-11-02T00:21:01.856Z,0
2018-11-02T00:22:02.172Z,0
2018-11-02T00:22:47.240Z,0
2018-11-02T00:23:47.563Z,0
2018-11-02T00:24:47.546Z,0
2018-11-02T00:25:47.648Z,0
2018-11-02T00:27:47.600Z,0
2018-11-02T00:29:02.361Z,0
2018-11-02T00:29:47.640Z,0
2018-11-02T00:30:47.127Z,0
2018-11-02T00:31:47.956Z,0
2018-11-02T00:32:47.673Z,0
2018-11-02T00:33:47.741Z,0
2018-11-02T00:35:47.758Z,0
2018-11-02T00:37:02.131Z,0
2018-11-02T00:38:02.430Z,0
2018-11-02T00:38:48.326Z,0
2018-11-02T00:39:47.811Z,0
2018-11-02T00:40:47.850Z,0
2018-11-02T00:41:47.589Z,0
2018-11-02T00:42:47.610Z,0
2018-11-02T00:43:47.643Z,0
2018-11-02T00:44:47.622Z,0
2018-11-02T00:45:47.959Z,0
2018-11-02T00:46:47.688Z,0
2018-11-02T00:47:47.841Z,0
2018-11-02T00:48:48.133Z,0
2018-11-02T00:49:48.188Z,0
2018-11-02T00:50:47.719Z,0
2018-11-02T00:51:48.089Z,0
2018-11-02T00:53:02.406Z,0
2018-11-02T00:54:02.724Z,0
2018-11-02T00:54:48.113Z,0
2018-11-02T00:55:47.824Z,0
2018-11-02T00:56:47.849Z,0
2018-11-02T00:57:48.246Z,0
2018-11-02T00:58:47.598Z,0
2018-11-02T00:59:48.048Z,0
2018-11-02T01:00:47.892Z,0
2018-11-02T01:01:48.248Z,0
2018-11-02T01:02:48.182Z,0
2018-11-02T01:03:48.277Z,0
2018-11-02T01:04:49.186Z,0
2018-11-02T01:05:48.314Z,0
2018-11-02T01:06:48.014Z,0
2018-11-02T01:07:48.309Z,0
2018-11-02T01:09:02.960Z,0
2018-11-02T01:09:48.389Z,0
2018-11-02T01:10:47.814Z,0
2018-11-02T01:11:48.113Z,0
2018-11-02T01:12:48.456Z,0
2018-11-02T01:13:48.423Z,0
2018-11-02T01:14:48.397Z,0
2018-11-02T01:15:48.451Z,0
2018-11-02T01:16:48.635Z,0
2018-11-02T01:17:48.487Z,0
2018-11-02T01:19:02.874Z,0
2018-11-02T01:19:49.010Z,0
2018-11-02T01:21:02.930Z,0
2018-11-02T01:22:02.905Z,0
2018-11-02T01:22:48.609Z,0
2018-11-02T01:23:48.577Z,0
2018-11-02T01:24:48.328Z,0
2018-11-02T01:25:48.346Z,0
2018-11-02T01:26:48.340Z,0
2018-11-02T01:27:48.620Z,0
2018-11-02T01:28:48.660Z,0
2018-11-02T01:29:49.276Z,0
2018-11-02T01:30:48.718Z,0
2018-11-02T01:31:48.449Z,0
2018-11-02T01:32:48.462Z,0
2018-11-02T01:33:48.460Z,0
2018-11-02T01:34:48.782Z,0
2018-11-02T01:36:03.426Z,0
2018-11-02T01:36:48.821Z,0
2018-11-02T01:37:48.278Z,0
2018-11-02T01:38:48.289Z,0
2018-11-02T01:39:49.055Z,0
2018-11-02T01:41:03.498Z,0
2018-11-02T01:41:48.904Z,0
2018-11-02T01:42:48.873Z,0
2018-11-02T01:44:03.581Z,0
2018-11-02T01:44:48.943Z,0
2018-11-02T01:45:48.936Z,0
2018-11-02T01:46:48.683Z,0
2018-11-02T01:47:48.955Z,0
2018-11-02T01:49:03.664Z,0
2018-11-02T01:49:49.137Z,0
2018-11-02T01:50:49.346Z,0
2018-11-02T01:51:49.048Z,0
2018-11-02T01:52:49.057Z,0
2018-11-02T01:53:48.884Z,0
2018-11-02T01:55:03.857Z,0
2018-11-02T01:55:48.568Z,0
2018-11-02T01:57:18.432Z,0
2018-11-02T01:57:49.125Z,0
2018-11-02T01:58:48.897Z,0
2018-11-02T01:59:48.902Z,0
2018-11-02T02:00:49.751Z,0
2018-11-02T02:02:03.900Z,0
2018-11-02T02:02:49.209Z,0
2018-11-02T02:04:04.270Z,0
2018-11-02T02:04:49.293Z,0
2018-11-02T02:05:49.063Z,0
2018-11-02T02:07:49.340Z,0
2018-11-02T02:08:49.353Z,0
2018-11-02T02:09:49.352Z,0
2018-11-02T02:10:48.829Z,0
2018-11-02T02:12:04.025Z,0
2018-11-02T02:13:04.168Z,0
2018-11-02T02:13:49.432Z,0
2018-11-02T02:14:49.189Z,0
2018-11-02T02:15:49.484Z,0
2018-11-02T02:16:49.525Z,0
2018-11-02T02:17:49.213Z,0
2018-11-02T02:18:49.531Z,0
2018-11-02T02:20:04.147Z,0
2018-11-02T02:20:49.558Z,0
2018-11-02T02:21:49.855Z,0
2018-11-02T02:22:49.593Z,0
2018-11-02T02:24:03.954Z,0
2018-11-02T02:24:49.371Z,0
2018-11-02T02:25:49.643Z,0
2018-11-02T02:27:04.261Z,0
2018-11-02T02:27:49.647Z,0
2018-11-02T02:29:04.300Z,0
2018-11-02T02:29:49.707Z,0
2018-11-02T02:30:49.687Z,0
2018-11-02T02:31:50.227Z,0
2018-11-02T02:34:04.389Z,0
2018-11-02T02:34:49.861Z,0
2018-11-02T02:35:49.770Z,0
2018-11-02T02:37:04.470Z,0
2018-11-02T02:37:49.824Z,0
2018-11-02T02:38:49.852Z,0
2018-11-02T02:39:49.856Z,0
2018-11-02T02:40:49.886Z,0
2018-11-02T02:41:50.205Z,0
2018-11-02T02:42:49.876Z,0
2018-11-02T02:44:04.314Z,0
2018-11-02T02:44:49.653Z,0
2018-11-02T02:45:49.977Z,0
2018-11-02T02:46:49.979Z,0
2018-11-02T02:47:49.986Z,0
2018-11-02T02:48:49.537Z,0
2018-11-02T02:49:49.823Z,0
2018-11-02T02:50:50.103Z,0
2018-11-02T02:51:50.270Z,0
2018-11-02T02:52:50.240Z,0
2018-11-02T02:53:50.138Z,0
2018-11-02T02:54:50.104Z,0
2018-11-02T02:55:49.877Z,0
2018-11-02T02:56:50.115Z,0
2018-11-02T02:57:49.953Z,0
2018-11-02T02:58:50.160Z,0
2018-11-02T02:59:49.657Z,0
2018-11-02T03:01:49.946Z,0
2018-11-02T03:02:50.469Z,0
2018-11-02T03:03:50.270Z,0
2018-11-02T03:04:50.003Z,0
2018-11-02T03:05:50.325Z,0
2018-11-02T03:07:04.681Z,0
2018-11-02T03:07:50.422Z,0
2018-11-02T03:08:50.307Z,0
2018-11-02T03:09:50.367Z,0
2018-11-02T03:10:51.339Z,0
2018-11-02T03:11:50.417Z,0
2018-11-02T03:12:50.597Z,0
2018-11-02T03:13:50.172Z,0
2018-11-02T03:14:50.176Z,0
2018-11-02T03:16:04.844Z,0
2018-11-02T03:16:50.448Z,0
2018-11-02T03:17:50.507Z,0
2018-11-02T03:19:05.360Z,0
2018-11-02T03:19:50.251Z,0
2018-11-02T03:20:50.597Z,0
2018-11-02T03:21:50.603Z,0
2018-11-02T03:22:50.142Z,0
2018-11-02T03:23:50.565Z,0
2018-11-02T03:24:50.602Z,0
2018-11-02T03:25:50.336Z,0
2018-11-02T03:26:50.384Z,0
2018-11-02T03:27:50.384Z,0
2018-11-02T03:28:50.716Z,0
2018-11-02T03:29:50.588Z,0
2018-11-02T03:30:50.780Z,0
2018-11-02T03:32:05.379Z,0
2018-11-02T03:32:50.691Z,0
2018-11-02T03:33:50.750Z,0
2018-11-02T03:35:05.167Z,0
2018-11-02T03:35:50.809Z,0
2018-11-02T03:37:05.175Z,0
2018-11-02T03:37:50.916Z,0
2018-11-02T03:38:50.852Z,0
2018-11-02T03:40:50.603Z,0
2018-11-02T03:41:50.896Z,0
2018-11-02T03:42:51.343Z,0
2018-11-02T03:44:50.908Z,0
2018-11-02T03:46:50.723Z,0
2018-11-02T03:48:05.631Z,0
2018-11-02T03:48:50.465Z,0
2018-11-02T03:49:50.783Z,0
2018-11-02T03:50:51.128Z,0
2018-11-02T03:52:51.635Z,0
2018-11-02T03:54:05.746Z,0
2018-11-02T03:54:50.843Z,0
2018-11-02T03:56:51.446Z,0
2018-11-02T03:57:51.164Z,0
2018-11-02T03:58:50.906Z,0
2018-11-02T03:59:50.991Z,0
2018-11-02T04:00:52.720Z,0
2018-11-02T04:01:51.264Z,0
2018-11-02T04:02:51.445Z,0
2018-11-02T04:04:05.894Z,0
2018-11-02T04:04:51.006Z,0
2018-11-02T04:06:51.081Z,0
2018-11-02T04:07:51.064Z,0
2018-11-02T04:08:51.052Z,0
2018-11-02T04:09:51.791Z,0
2018-11-02T04:10:51.204Z,0
2018-11-02T04:11:51.466Z,0
2018-11-02T04:12:51.349Z,0
2018-11-02T04:14:06.056Z,0
2018-11-02T04:14:51.175Z,0
2018-11-02T04:15:51.182Z,0
2018-11-02T04:16:51.480Z,0
2018-11-02T04:18:06.116Z,0
2018-11-02T04:19:06.160Z,0
2018-11-02T04:20:06.171Z,0
2018-11-02T04:20:51.494Z,0
2018-11-02T04:22:51.538Z,0
2018-11-02T04:24:51.343Z,0
2018-11-02T04:25:51.716Z,0
2018-11-02T04:26:51.448Z,0
2018-11-02T04:27:51.460Z,0
2018-11-02T04:28:51.673Z,0
2018-11-02T04:29:51.151Z,0
2018-11-02T04:30:52.205Z,0
2018-11-02T04:32:06.348Z,0
2018-11-02T04:32:51.784Z,0
2018-11-02T04:33:51.615Z,0
2018-11-02T04:34:51.759Z,0
2018-11-02T04:35:51.264Z,0
2018-11-02T04:36:51.804Z,0
2018-11-02T04:37:51.542Z,0
2018-11-02T04:38:51.551Z,0
2018-11-02T04:39:51.891Z,0
2018-11-02T04:41:51.860Z,0
2018-11-02T04:43:06.543Z,0
2018-11-02T04:43:52.160Z,0
2018-11-02T04:44:52.314Z,0
2018-11-02T04:45:51.135Z,0
2018-11-02T04:46:51.977Z,0
2018-11-02T04:49:06.625Z,0
2018-11-02T04:49:51.774Z,0
2018-11-02T04:51:07.176Z,0
2018-11-02T04:51:52.033Z,0
2018-11-02T04:52:51.561Z,0
2018-11-02T04:53:52.266Z,0
2018-11-02T04:54:52.764Z,0
2018-11-02T04:55:51.856Z,0
2018-11-02T04:57:06.511Z,0
2018-11-02T04:57:51.901Z,0
2018-11-02T04:58:52.151Z,0
2018-11-02T04:59:52.176Z,0
2018-11-02T05:00:52.210Z,0
2018-11-02T05:02:06.572Z,0
2018-11-02T05:02:52.241Z,0
2018-11-02T05:03:51.965Z,0
2018-11-02T05:04:52.740Z,0
2018-11-02T05:05:52.262Z,0
2018-11-02T05:07:52.009Z,0
2018-11-02T05:08:51.790Z,0
2018-11-02T05:09:52.858Z,0
2018-11-02T05:10:52.079Z,0
2018-11-02T05:12:07.023Z,0
2018-11-02T05:13:07.020Z,0
2018-11-02T05:13:52.405Z,0
2018-11-02T05:14:52.401Z,0
2018-11-02T05:17:52.168Z,0
2018-11-02T05:18:52.518Z,0
2018-11-02T05:19:52.491Z,0
2018-11-02T05:20:52.299Z,0
2018-11-02T05:21:51.969Z,0
2018-11-02T05:23:07.173Z,0
2018-11-02T05:23:52.580Z,0
2018-11-02T05:24:53.022Z,0
2018-11-02T05:25:52.341Z,0
2018-11-02T05:26:52.584Z,0
2018-11-02T05:28:07.623Z,0
2018-11-02T05:28:52.404Z,0
2018-11-02T05:29:52.671Z,4
2018-11-02T05:30:52.717Z,4
2018-11-02T05:31:52.664Z,0
2018-11-02T05:32:52.416Z,4
2018-11-02T05:33:52.455Z,4
2018-11-02T05:34:53.010Z,4
2018-11-02T05:35:53.218Z,8
2018-11-02T05:36:52.485Z,8
2018-11-02T05:37:52.798Z,8
2018-11-02T05:39:07.200Z,12
2018-11-02T05:39:52.824Z,16
2018-11-02T05:40:52.644Z,20
2018-11-02T05:41:52.864Z,24
2018-11-02T05:42:52.921Z,28
2018-11-02T05:44:07.576Z,36
2018-11-02T05:44:52.931Z,44
2018-11-02T05:45:53.403Z,48
2018-11-02T05:46:52.938Z,56
2018-11-02T05:48:52.988Z,72
2018-11-02T05:49:52.700Z,84
2018-11-02T05:50:53.040Z,100
2018-11-02T05:53:07.656Z,140
2018-11-02T05:54:08.052Z,160
2018-11-02T05:54:53.026Z,172
2018-11-02T05:55:53.472Z,192
2018-11-02T05:56:52.830Z,216
2018-11-02T05:57:53.088Z,244
2018-11-02T05:58:53.138Z,268
2018-11-02T06:00:07.814Z,300
2018-11-02T06:00:53.194Z,316
2018-11-02T06:01:52.907Z,340
2018-11-02T06:02:53.255Z,364
2018-11-02T06:04:07.893Z,392
2018-11-02T06:04:52.929Z,412
2018-11-02T06:05:53.743Z,444
2018-11-02T06:06:52.716Z,472
2018-11-02T06:08:53.106Z,544
2018-11-02T06:09:53.268Z,572
2018-11-02T06:11:53.088Z,640
2018-11-02T06:12:53.378Z,688
2018-11-02T06:14:08.051Z,748
2018-11-02T06:14:53.426Z,772
2018-11-02T06:15:53.559Z,800
2018-11-02T06:16:53.685Z,828
2018-11-02T06:17:53.164Z,840
2018-11-02T06:18:53.180Z,844
2018-11-02T06:20:07.841Z,864
2018-11-02T06:20:53.461Z,880
2018-11-02T06:21:53.502Z,920
2018-11-02T06:22:53.481Z,980
2018-11-02T06:23:53.518Z,1040
2018-11-02T06:24:53.609Z,1096
2018-11-02T06:26:08.184Z,1136
2018-11-02T06:26:53.868Z,1136
2018-11-02T06:27:53.327Z,1144
2018-11-02T06:28:53.317Z,1172
2018-11-02T06:30:08.008Z,1216
2018-11-02T06:31:08.514Z,1280
2018-11-02T06:31:53.638Z,1312
2018-11-02T06:32:54.462Z,1384
2018-11-02T06:33:53.387Z,1464
2018-11-02T06:34:53.725Z,1520
2018-11-02T06:35:53.806Z,1552
2018-11-02T06:36:54.192Z,1588
2018-11-02T06:37:53.519Z,1612
2018-11-02T06:39:53.798Z,1636
2018-11-02T06:40:53.800Z,1664
2018-11-02T06:42:08.458Z,1736
2018-11-02T06:43:07.930Z,1784
2018-11-02T06:43:53.809Z,1816
2018-11-02T06:44:54.274Z,1876
2018-11-02T06:45:53.852Z,1940
2018-11-02T06:46:54.091Z,2040
2018-11-02T06:47:54.109Z,2212
2018-11-02T06:48:53.669Z,2172
2018-11-02T06:49:53.918Z,2160
2018-11-02T06:50:54.609Z,2420
2018-11-02T06:51:53.966Z,2476
2018-11-02T06:52:53.171Z,2652
2018-11-02T06:53:53.981Z,2904
2018-11-02T06:54:53.763Z,3120
2018-11-02T06:55:54.015Z,4448
2018-11-02T06:56:54.066Z,10696
2018-11-02T06:58:08.431Z,19872
2018-11-02T06:58:54.093Z,23808
2018-11-02T06:59:55.202Z,25344
2018-11-02T07:00:54.072Z,23360
2018-11-02T07:01:54.128Z,24224
2018-11-02T07:02:53.885Z,23616
2018-11-02T07:03:54.170Z,24736
2018-11-02T07:04:53.930Z,25888
2018-11-02T07:05:53.662Z,26208
2018-11-02T07:06:53.932Z,27424
2018-11-02T07:07:55.312Z,26368
2018-11-02T07:08:53.973Z,28704
2018-11-02T07:09:54.011Z,29184
2018-11-02T07:10:54.035Z,27488
2018-11-02T07:12:08.660Z,20064
2018-11-02T07:12:54.314Z,22560
2018-11-02T07:14:09.027Z,17344
2018-11-02T07:15:54.089Z,11484
2018-11-02T07:16:54.129Z,11424
2018-11-02T07:17:54.054Z,10992
2018-11-02T07:18:54.683Z,11396
2018-11-02T07:20:54.009Z,11460
2018-11-02T07:21:54.193Z,11304
2018-11-02T07:22:54.505Z,10276
2018-11-02T07:23:54.310Z,8316
2018-11-02T07:24:54.449Z,8780
2018-11-02T07:25:54.265Z,5404
2018-11-02T07:26:54.579Z,6716
2018-11-02T07:27:54.609Z,7228
2018-11-02T07:29:23.904Z,7720
2018-11-02T07:29:54.356Z,7620
2018-11-02T07:30:54.636Z,7208
2018-11-02T07:31:54.496Z,7304
2018-11-02T07:32:54.417Z,7440
2018-11-02T07:34:54.722Z,6616
2018-11-02T07:35:54.742Z,6792
2018-11-02T07:36:54.776Z,7140
2018-11-02T07:37:54.776Z,6684
2018-11-02T07:38:54.924Z,7096
2018-11-02T07:40:54.925Z,5504
2018-11-02T07:41:54.824Z,6940
2018-11-02T07:43:09.522Z,8192
2018-11-02T07:44:09.255Z,8616
2018-11-02T07:44:54.942Z,9676
2018-11-02T07:46:09.288Z,9316
2018-11-02T07:46:54.671Z,8744
2018-11-02T07:47:55.415Z,7416
2018-11-02T07:48:55.016Z,7452
2018-11-02T07:49:55.592Z,6936
2018-11-02T07:51:09.423Z,9292
2018-11-02T07:51:55.043Z,9088
2018-11-02T07:52:55.191Z,8904
2018-11-02T07:53:55.062Z,9740
2018-11-02T07:54:54.820Z,9568
2018-11-02T07:55:55.150Z,9600
2018-11-02T07:57:55.162Z,9116
2018-11-02T07:58:54.977Z,9500
2018-11-02T07:59:55.561Z,9628
2018-11-02T08:01:09.869Z,9312
2018-11-02T08:01:54.999Z,8736
2018-11-02T08:03:09.923Z,10376
2018-11-02T08:03:55.295Z,9528
2018-11-02T08:04:55.064Z,9756
2018-11-02T08:05:54.752Z,8148
2018-11-02T08:06:55.323Z,8284
2018-11-02T08:07:54.780Z,9472
2018-11-02T08:08:55.095Z,9956
2018-11-02T08:09:55.306Z,9932
2018-11-02T08:10:55.714Z,11228
2018-11-02T08:11:55.407Z,11888
2018-11-02T08:12:55.421Z,11924
2018-11-02T08:14:10.087Z,12180
2018-11-02T08:14:55.211Z,11440
2018-11-02T08:15:55.182Z,11640
2018-11-02T08:17:09.894Z,11616
2018-11-02T08:17:55.365Z,11824
2018-11-02T08:18:55.613Z,11820
2018-11-02T08:19:55.271Z,12412
2018-11-02T08:21:10.228Z,12700
2018-11-02T08:21:55.601Z,12600
2018-11-02T08:23:55.652Z,13304
2018-11-02T08:24:55.375Z,13808
2018-11-02T08:25:55.138Z,13780
2018-11-02T08:26:55.437Z,13836
2018-11-02T08:27:55.204Z,14108
2018-11-02T08:28:55.442Z,14104
2018-11-02T08:29:55.473Z,13944
2018-11-02T08:31:55.615Z,13040
2018-11-02T08:33:10.430Z,13692
2018-11-02T08:33:55.572Z,13592
2018-11-02T08:35:55.830Z,13156
2018-11-02T08:36:55.882Z,12736
2018-11-02T08:38:55.637Z,9996
2018-11-02T08:39:55.948Z,11404
2018-11-02T08:40:55.414Z,11592
2018-11-02T08:41:55.724Z,6456
2018-11-02T08:42:55.978Z,8176
2018-11-02T08:43:55.773Z,5636
2018-11-02T08:44:55.999Z,5996
2018-11-02T08:45:55.777Z,7080
2018-11-02T08:46:56.052Z,5580
2018-11-02T08:47:55.842Z,6344
2018-11-02T08:49:25.424Z,6260
2018-11-02T08:49:56.105Z,6872
2018-11-02T08:50:56.163Z,6932
2018-11-02T08:52:55.919Z,9452
2018-11-02T08:53:56.192Z,10204
2018-11-02T08:54:56.252Z,10748
2018-11-02T08:55:56.011Z,10300
2018-11-02T08:57:10.902Z,11944
2018-11-02T08:59:10.970Z,11812
2018-11-02T08:59:56.515Z,11148
2018-11-02T09:00:56.347Z,13728
2018-11-02T09:01:56.386Z,13652
2018-11-02T09:02:56.397Z,14644
2018-11-02T09:04:10.783Z,15236
2018-11-02T09:04:56.457Z,15204
2018-11-02T09:05:56.491Z,12812
2018-11-02T09:07:11.105Z,13736
2018-11-02T09:07:56.238Z,12912
2018-11-02T09:08:56.475Z,13120
2018-11-02T09:10:56.279Z,12680
2018-11-02T09:11:56.732Z,13684
2018-11-02T09:12:56.346Z,12384
2018-11-02T09:13:56.328Z,13784
2018-11-02T09:14:56.627Z,12456
2018-11-02T09:15:56.360Z,13324
2018-11-02T09:16:56.698Z,12496
2018-11-02T09:17:56.409Z,12784
2018-11-02T09:19:56.222Z,11896
2018-11-02T09:20:56.516Z,12760
2018-11-02T09:21:56.950Z,12236
2018-11-02T09:24:11.509Z,13508
2018-11-02T09:24:56.599Z,10796
2018-11-02T09:25:56.896Z,13416
2018-11-02T09:26:56.963Z,10372
2018-11-02T09:27:57.313Z,9684
2018-11-02T09:28:56.894Z,7916
2018-11-02T09:30:11.313Z,7488
2018-11-02T09:30:56.979Z,7256
2018-11-02T09:32:56.486Z,7124
2018-11-02T09:33:56.760Z,7572
2018-11-02T09:35:11.691Z,7212
2018-11-02T09:36:11.756Z,7268
2018-11-02T09:36:57.129Z,7064
2018-11-02T09:37:57.112Z,7084
2018-11-02T09:38:56.615Z,7064
2018-11-02T09:39:57.455Z,7216
2018-11-02T09:40:57.207Z,7216
2018-11-02T09:41:56.945Z,7276
2018-11-02T09:42:57.687Z,7388
2018-11-02T09:43:57.251Z,7216
2018-11-02T09:45:11.798Z,7044
2018-11-02T09:45:57.413Z,6956
2018-11-02T09:47:56.809Z,7160
2018-11-02T09:49:11.988Z,7724
2018-11-02T09:49:57.848Z,9272
2018-11-02T09:50:57.382Z,9732
2018-11-02T09:52:12.833Z,8596
2018-11-02T09:52:57.412Z,8580
2018-11-02T09:53:57.181Z,9792
2018-11-02T09:54:57.215Z,8920
2018-11-02T09:55:56.980Z,8676
2018-11-02T09:56:57.549Z,8384
2018-11-02T09:57:57.941Z,8056
2018-11-02T09:58:57.292Z,8100
2018-11-02T10:00:12.605Z,7980
2018-11-02T10:00:58.677Z,8148
2018-11-02T10:01:57.906Z,9148
2018-11-02T10:02:57.641Z,8328
2018-11-02T10:03:57.657Z,8072
2018-11-02T10:04:57.165Z,8316
2018-11-02T10:05:57.749Z,8828
2018-11-02T10:06:57.481Z,8872
2018-11-02T10:08:12.375Z,9068
2018-11-02T10:09:58.140Z,8480
2018-11-02T10:10:57.829Z,8480
2018-11-02T10:12:12.468Z,8732
2018-11-02T10:12:57.599Z,8632
2018-11-02T10:13:57.841Z,9056
2018-11-02T10:14:57.922Z,9124
2018-11-02T10:15:57.910Z,9260
2018-11-02T10:16:57.692Z,9384
2018-11-02T10:17:57.939Z,8684
2018-11-02T10:18:58.008Z,8736
2018-11-02T10:19:58.029Z,8712
2018-11-02T10:20:58.040Z,8636
2018-11-02T10:21:57.755Z,8848
2018-11-02T10:22:57.816Z,8568
2018-11-02T10:24:12.195Z,8600
2018-11-02T10:24:58.104Z,8520
2018-11-02T10:26:12.766Z,8312
2018-11-02T10:26:58.186Z,8140
2018-11-02T10:27:58.258Z,7872
2018-11-02T10:28:58.207Z,7684
2018-11-02T10:29:58.593Z,7556
2018-11-02T10:30:58.251Z,7548
2018-11-02T10:31:58.008Z,7316
2018-11-02T10:32:58.416Z,7124
2018-11-02T10:33:58.334Z,7068
2018-11-02T10:34:58.051Z,6976
2018-11-02T10:35:58.343Z,6920
2018-11-02T10:37:12.828Z,6984
2018-11-02T10:37:58.424Z,7048
2018-11-02T10:39:13.059Z,6816
2018-11-02T10:39:58.829Z,6764
2018-11-02T10:40:58.428Z,6772
2018-11-02T10:41:58.498Z,6828
2018-11-02T10:42:58.198Z,6884
2018-11-02T10:43:58.248Z,6908
2018-11-02T10:45:58.480Z,6944
2018-11-02T10:46:58.324Z,6944
2018-11-02T10:47:58.561Z,6956
2018-11-02T10:48:58.640Z,7080
2018-11-02T10:49:58.911Z,7228
2018-11-02T10:51:13.472Z,7444
2018-11-02T10:51:58.415Z,7480
2018-11-02T10:52:58.766Z,7504
2018-11-02T10:53:58.459Z,7344
2018-11-02T10:54:58.751Z,7164
2018-11-02T10:55:58.771Z,7016
2018-11-02T10:56:58.532Z,6788
2018-11-02T10:57:58.523Z,6804
2018-11-02T10:58:58.557Z,6664
2018-11-02T10:59:58.769Z,6716
2018-11-02T11:00:59.608Z,6708
2018-11-02T11:01:58.602Z,6756
2018-11-02T11:02:58.655Z,6788
2018-11-02T11:03:58.926Z,6844
2018-11-02T11:04:58.697Z,6888
2018-11-02T11:05:58.962Z,6888
2018-11-02T11:06:58.975Z,6904
2018-11-02T11:07:59.025Z,6944
2018-11-02T11:08:59.069Z,7000
2018-11-02T11:09:59.350Z,7080
2018-11-02T11:11:13.703Z,7204
2018-11-02T11:12:13.789Z,7228
2018-11-02T11:13:01.412Z,7284
2018-11-02T11:13:58.859Z,7352
2018-11-02T11:15:13.824Z,7200
2018-11-02T11:15:59.215Z,7120
2018-11-02T11:16:59.235Z,6868
2018-11-02T11:17:59.248Z,6676
2018-11-02T11:18:59.255Z,6468
2018-11-02T11:19:59.838Z,6352
2018-11-02T11:20:59.047Z,6316
2018-11-02T11:21:59.299Z,6332
2018-11-02T11:22:59.359Z,6336
2018-11-02T11:23:59.069Z,6320
2018-11-02T11:24:59.403Z,6268
2018-11-02T11:25:59.426Z,6196
2018-11-02T11:27:14.093Z,6196
2018-11-02T11:27:59.481Z,6272
2018-11-02T11:30:14.125Z,6520
2018-11-02T11:30:59.502Z,6556
2018-11-02T11:31:59.530Z,6540
2018-11-02T11:32:59.532Z,6440
2018-11-02T11:33:59.599Z,6312
2018-11-02T11:34:59.718Z,6100
2018-11-02T11:35:59.686Z,5888
2018-11-02T11:36:59.369Z,5688
2018-11-02T11:37:59.374Z,5516
2018-11-02T11:38:59.709Z,5368
2018-11-02T11:40:00.314Z,5264
2018-11-02T11:40:59.733Z,5184
2018-11-02T11:42:14.369Z,5300
2018-11-02T11:43:14.156Z,5604
2018-11-02T11:43:59.486Z,5228
2018-11-02T11:44:59.512Z,4984
2018-11-02T11:45:59.844Z,4868
2018-11-02T11:46:59.881Z,5660
2018-11-02T11:47:59.849Z,5432
2018-11-02T11:49:01.034Z,5028
2018-11-02T11:50:00.484Z,5060
2018-11-02T11:50:59.962Z,4664
2018-11-02T11:51:59.759Z,4472
2018-11-02T11:53:00.001Z,4664
2018-11-02T11:53:59.971Z,4600
2018-11-02T11:55:14.654Z,5052
2018-11-02T11:55:59.497Z,5244
2018-11-02T11:56:59.792Z,5460
2018-11-02T11:58:00.102Z,5700
2018-11-02T11:59:14.715Z,5876
2018-11-02T12:00:00.658Z,5948
2018-11-02T12:00:59.900Z,5988
2018-11-02T12:03:00.187Z,5192
2018-11-02T12:03:59.942Z,5304
2018-11-02T12:05:00.756Z,4804
2018-11-02T12:07:00.282Z,4712
2018-11-02T12:08:00.270Z,4316
2018-11-02T12:09:00.324Z,4112
2018-11-02T12:10:00.736Z,4140
2018-11-02T12:11:00.382Z,4152
2018-11-02T12:12:14.763Z,4512
2018-11-02T12:13:00.418Z,4580
2018-11-02T12:14:59.895Z,4692
2018-11-02T12:16:00.950Z,4852
2018-11-02T12:17:15.138Z,4960
2018-11-02T12:18:00.509Z,4972
2018-11-02T12:19:00.558Z,5112
2018-11-02T12:21:00.541Z,3904
2018-11-02T12:22:00.355Z,3660
2018-11-02T12:23:00.618Z,3536
2018-11-02T12:24:00.379Z,3504
2018-11-02T12:25:00.369Z,3428
2018-11-02T12:26:00.680Z,3468
2018-11-02T12:27:00.422Z,3392
2018-11-02T12:28:00.820Z,3344
2018-11-02T12:29:15.763Z,3404
2018-11-02T12:30:00.663Z,3488
2018-11-02T12:31:00.875Z,3588
2018-11-02T12:32:00.780Z,3924
2018-11-02T12:33:00.835Z,4192
2018-11-02T12:34:00.817Z,4912
2018-11-02T12:35:00.879Z,4840
2018-11-02T12:36:00.624Z,4768
2018-11-02T12:37:00.929Z,4552
2018-11-02T12:38:00.377Z,4376
2018-11-02T12:39:15.300Z,4316
2018-11-02T12:40:01.206Z,4408
2018-11-02T12:41:00.970Z,4408
2018-11-02T12:42:00.747Z,4472
2018-11-02T12:43:01.356Z,4468
2018-11-02T12:44:16.090Z,4512
2018-11-02T12:46:15.754Z,4568
2018-11-02T12:47:15.748Z,4540
2018-11-02T12:48:01.202Z,4532
2018-11-02T12:49:02.836Z,4548
2018-11-02T12:50:02.112Z,4552
2018-11-02T12:51:01.553Z,4548
2018-11-02T12:52:01.230Z,4552
2018-11-02T12:53:01.260Z,4528
2018-11-02T12:54:00.974Z,4488
2018-11-02T12:55:01.278Z,4352
2018-11-02T12:56:01.276Z,4524
2018-11-02T12:57:16.009Z,4488
2018-11-02T12:58:01.436Z,4400
2018-11-02T12:59:01.388Z,4232
2018-11-02T13:00:01.435Z,4052
2018-11-02T13:02:16.067Z,3948
2018-11-02T13:03:16.086Z,3948
2018-11-02T13:04:01.469Z,4504
2018-11-02T13:05:01.203Z,4036
2018-11-02T13:07:16.186Z,4456
2018-11-02T13:08:01.543Z,4408
2018-11-02T13:09:16.296Z,4356
2018-11-02T13:10:01.037Z,4344
2018-11-02T13:11:02.008Z,4328
2018-11-02T13:12:01.382Z,4328
2018-11-02T13:13:01.377Z,4344
2018-11-02T13:14:01.732Z,3012
2018-11-02T13:15:01.707Z,3740
2018-11-02T13:16:02.067Z,4420
2018-11-02T13:17:01.770Z,4136
2018-11-02T13:18:16.385Z,3596
2018-11-02T13:19:02.098Z,3572
2018-11-02T13:20:01.742Z,3464
2018-11-02T13:21:01.961Z,3332
2018-11-02T13:22:16.628Z,3832
2018-11-02T13:23:01.623Z,3420
2018-11-02T13:24:01.641Z,3892
2018-11-02T13:25:01.939Z,4304
2018-11-02T13:26:02.954Z,4308
2018-11-02T13:27:16.602Z,3348
2018-11-02T13:28:16.420Z,3056
2018-11-02T13:29:01.696Z,2868
2018-11-02T13:31:17.171Z,2312
2018-11-02T13:32:03.042Z,2248
2018-11-02T13:33:02.098Z,2220
2018-11-02T13:34:16.971Z,2280
2018-11-02T13:35:01.918Z,2348
2018-11-02T13:36:16.317Z,2472
2018-11-02T13:37:02.562Z,2540
2018-11-02T13:38:02.176Z,2648
2018-11-02T13:39:02.228Z,2840
2018-11-02T13:40:02.215Z,2868
2018-11-02T13:42:16.936Z,3052
2018-11-02T13:43:02.833Z,3116
2018-11-02T13:44:02.061Z,3224
2018-11-02T13:45:02.332Z,3296
2018-11-02T13:46:02.074Z,3348
2018-11-02T13:47:02.108Z,3372
2018-11-02T13:48:02.430Z,3368
2018-11-02T13:49:31.721Z,3388
2018-11-02T13:50:02.413Z,3404
2018-11-02T13:52:02.371Z,4228
2018-11-02T13:53:02.885Z,4380
2018-11-02T13:55:02.525Z,4132
2018-11-02T13:56:02.593Z,3736
2018-11-02T13:57:02.350Z,4028
2018-11-02T13:58:02.327Z,4332
2018-11-02T13:59:02.742Z,4260
2018-11-02T14:00:02.217Z,4164
2018-11-02T14:01:02.467Z,4056
2018-11-02T14:02:02.903Z,4072
2018-11-02T14:03:03.037Z,4052
2018-11-02T14:04:02.715Z,4028
2018-11-02T14:05:02.778Z,4020
2018-11-02T14:06:02.786Z,3984
2018-11-02T14:07:02.809Z,3948
2018-11-02T14:08:02.838Z,3872
2018-11-02T14:09:02.601Z,3828
2018-11-02T14:10:02.849Z,3796
2018-11-02T14:11:02.884Z,3740
2018-11-02T14:13:03.250Z,3684
2018-11-02T14:14:02.649Z,3648
2018-11-02T14:15:02.710Z,3608
2018-11-02T14:16:02.977Z,3556
2018-11-02T14:17:03.054Z,3516
2018-11-02T14:18:03.016Z,3476
2018-11-02T14:19:03.051Z,3424
2018-11-02T14:20:17.715Z,3332
2018-11-02T14:21:17.465Z,3252
2018-11-02T14:22:02.965Z,3204
2018-11-02T14:23:03.026Z,3076
2018-11-02T14:24:03.169Z,2632
2018-11-02T14:25:03.160Z,2536
2018-11-02T14:27:03.221Z,2856
2018-11-02T14:28:02.980Z,2776
2018-11-02T14:29:03.283Z,2660
2018-11-02T14:30:03.287Z,2140
2018-11-02T14:31:03.015Z,2104
2018-11-02T14:32:03.577Z,2144
2018-11-02T14:33:03.375Z,2148
2018-11-02T14:34:03.377Z,2176
2018-11-02T14:36:03.145Z,1992
2018-11-02T14:37:18.075Z,1896
2018-11-02T14:38:03.522Z,1832
2018-11-02T14:39:03.490Z,1768
2018-11-02T14:40:03.525Z,1752
2018-11-02T14:41:04.263Z,1704
2018-11-02T14:42:03.625Z,1644
2018-11-02T14:43:04.066Z,1580
2018-11-02T14:44:17.932Z,1524
2018-11-02T14:45:03.624Z,1512
2018-11-02T14:46:03.335Z,1516